Duque de Caxias, Brazil
Current Conditions -  °F | °C
As of 3:00 AM on Wednesday 22 Oct 2014 (Local Time) from SBGL Reporting Station
Broken Clouds Broken Clouds  
Wind Chill: 19°   Ceiling: 3000
Heat Index: 19°   Visibility: 6mi
Dew Point: 14°   Wind: 3mph
Humidity: 73%   Direction: 140°SE
Pressure: 30.12"   Gusts: NA
Location:  22.77°S, 43.31°W
Report Text: SBGL 220500Z 14003KT 9999 BKN030 BKN070 19/14 Q1020
Loading
Personal Weather Stations






























Interactive Weather Map
Tropical Storm Tracking
New forecast layout! Learn more

10-Day Weather Forecast

Advertisements
Track Severe Weather on mobile